createdAt,value
2023-05-16T00:00:36.186Z,1.20
2023-05-16T00:32:58.270Z,1.48
2023-05-16T00:38:40.117Z,1.42
2023-05-16T00:51:04.527Z,1.73
2023-05-16T00:56:25.036Z,1.70
2023-05-16T01:01:52.590Z,1.42
2023-05-16T01:14:24.998Z,1.75
2023-05-16T01:19:58.097Z,1.20
2023-05-16T01:25:59.725Z,1.75
2023-05-16T01:32:11.519Z,1.50
2023-05-16T01:38:36.491Z,1.60
2023-05-16T01:50:16.596Z,1.88
2023-05-16T02:03:17.501Z,1.25
2023-05-16T02:15:11.688Z,1.40
2023-05-16T02:21:19.679Z,1.67
2023-05-16T02:27:32.322Z,1.60
2023-05-16T02:33:47.986Z,1.58
2023-05-16T02:39:39.268Z,1.58
2023-05-16T02:51:07.984Z,1.10
2023-05-16T02:56:34.897Z,1.77
2023-05-16T03:02:04.035Z,1.38
2023-05-16T03:07:51.478Z,1.85
2023-05-16T03:13:55.774Z,1.55
2023-05-16T03:19:24.032Z,1.40
2023-05-16T03:31:18.930Z,1.30
2023-05-16T03:36:59.431Z,1.30
2023-05-16T03:42:30.090Z,1.52
2023-05-16T03:48:03.538Z,1.20
2023-05-16T03:59:42.050Z,1.13
2023-05-16T04:17:52.243Z,1.48
2023-05-16T04:23:34.583Z,1.10
2023-05-16T04:28:46.792Z,1.05
2023-05-16T04:40:15.054Z,1.08
2023-05-16T04:45:49.630Z,1.10
2023-05-16T04:57:42.202Z,1.02
2023-05-16T05:03:31.432Z,0.90
2023-05-16T05:09:14.917Z,1.13
2023-05-16T05:14:49.566Z,1.60
2023-05-16T05:20:42.091Z,0.90
2023-05-16T05:26:04.280Z,1.17
2023-05-16T05:31:29.293Z,1.30
2023-05-16T05:36:59.759Z,1.00
2023-05-16T05:42:37.200Z,0.93
2023-05-16T05:48:18.210Z,1.30
2023-05-16T05:54:06.862Z,1.10
2023-05-16T05:59:49.035Z,1.08
2023-05-16T06:05:32.441Z,1.00
2023-05-16T06:11:30.369Z,0.80
2023-05-16T06:16:48.852Z,0.88
2023-05-16T06:22:43.256Z,1.98
2023-05-16T06:28:28.217Z,1.45
2023-05-16T06:34:42.918Z,1.13
2023-05-16T06:40:35.280Z,0.85
2023-05-16T06:51:25.835Z,0.82
2023-05-16T06:57:05.404Z,1.15
2023-05-16T07:02:33.048Z,1.15
2023-05-16T07:07:55.065Z,0.85
2023-05-16T07:19:02.605Z,1.00
2023-05-16T07:24:26.434Z,0.93
2023-05-16T07:47:50.725Z,1.35
2023-05-16T08:05:00.840Z,1.83
2023-05-16T08:11:11.332Z,2.42
2023-05-16T08:22:28.343Z,1.13
2023-05-16T08:27:30.492Z,1.08
2023-05-16T08:32:32.673Z,1.17
2023-05-16T08:37:35.308Z,1.23
2023-05-16T08:42:38.083Z,1.02
2023-05-16T08:47:41.768Z,2.30
2023-05-16T08:52:44.653Z,1.48
2023-05-16T08:57:47.421Z,2.17
2023-05-16T09:02:52.238Z,2.65
2023-05-16T09:08:01.067Z,2.20
2023-05-16T09:13:11.489Z,2.05
2023-05-16T09:25:12.643Z,1.88
2023-05-16T09:31:11.024Z,2.67
2023-05-16T09:36:46.510Z,2.13
2023-05-16T09:49:11.319Z,2.63
2023-05-16T09:55:05.792Z,2.03
2023-05-16T10:01:20.400Z,2.20
2023-05-16T10:07:30.567Z,2.55
2023-05-16T10:25:39.940Z,1.75
2023-05-16T10:31:30.956Z,1.38
2023-05-16T10:37:22.755Z,2.20
2023-05-16T10:43:38.131Z,2.65
2023-05-16T10:49:32.119Z,2.80
2023-05-16T10:55:04.267Z,1.38
2023-05-16T11:01:03.651Z,2.33
2023-05-16T11:06:57.112Z,2.17
2023-05-16T11:13:24.637Z,0.80
2023-05-16T11:19:00.906Z,2.20
2023-05-16T11:30:04.141Z,1.70
2023-05-16T11:35:47.754Z,1.17
2023-05-16T11:41:38.253Z,1.48
2023-05-16T11:52:35.806Z,2.33
2023-05-16T11:57:52.136Z,1.13
2023-05-16T12:03:06.604Z,2.03
2023-05-16T12:08:12.608Z,1.85
2023-05-16T12:13:20.554Z,1.67
2023-05-16T12:18:25.176Z,1.15
2023-05-16T12:23:28.104Z,1.00
2023-05-16T12:28:35.150Z,2.75
2023-05-16T12:33:37.861Z,2.13
2023-05-16T12:38:40.455Z,3.22
2023-05-16T12:43:43.060Z,2.53
2023-05-16T12:48:47.521Z,2.15
2023-05-16T12:54:05.677Z,1.90
2023-05-16T12:59:14.849Z,1.95
2023-05-16T13:04:20.267Z,3.35
2023-05-16T13:14:24.941Z,2.45
2023-05-16T13:19:27.480Z,1.98
2023-05-16T13:24:29.988Z,2.17
2023-05-16T13:29:32.841Z,0.82
2023-05-16T13:34:35.566Z,0.82
2023-05-16T13:39:38.145Z,2.15
2023-05-16T13:44:40.604Z,1.42
2023-05-16T13:49:43.328Z,1.95
2023-05-16T13:54:45.673Z,1.85
2023-05-16T14:00:11.578Z,3.53
2023-05-16T14:05:14.229Z,4.25
2023-05-16T14:10:16.702Z,4.32
2023-05-16T14:15:19.191Z,3.95
2023-05-16T14:20:21.657Z,3.50
2023-05-16T14:25:24.078Z,3.88
2023-05-16T14:30:27.595Z,4.53
2023-05-16T14:35:31.460Z,3.55
2023-05-16T14:40:34.558Z,3.03
2023-05-16T14:45:38.070Z,3.78
2023-05-16T14:50:41.093Z,2.10
2023-05-16T14:55:43.765Z,1.90
2023-05-16T15:00:46.480Z,1.55
2023-05-16T15:05:49.126Z,1.35
2023-05-16T15:10:51.652Z,1.02
2023-05-16T15:15:54.019Z,1.20
2023-05-16T15:20:56.576Z,1.45
2023-05-16T15:25:59.130Z,1.02
2023-05-16T15:31:01.565Z,0.85
2023-05-16T15:36:04.283Z,0.98
2023-05-16T15:41:21.943Z,1.25
2023-05-16T15:51:35.943Z,1.90
2023-05-16T15:56:38.784Z,2.50
2023-05-16T16:01:41.323Z,2.10
2023-05-16T16:06:43.957Z,1.33
2023-05-16T16:11:46.511Z,1.70
2023-05-16T16:16:51.281Z,2.47
2023-05-16T16:21:53.853Z,2.47
2023-05-16T16:26:56.293Z,1.92
2023-05-16T16:31:58.912Z,3.05
2023-05-16T16:37:01.522Z,3.17
2023-05-16T16:42:04.116Z,2.10
2023-05-16T16:47:07.027Z,2.53
2023-05-16T16:52:09.737Z,1.95
2023-05-16T16:57:12.175Z,1.73
2023-05-16T17:02:15.252Z,2.20
2023-05-16T17:07:17.928Z,3.22
2023-05-16T17:12:20.770Z,1.80
2023-05-16T17:17:25.450Z,3.10
2023-05-16T17:22:28.377Z,3.38
2023-05-16T17:27:31.191Z,3.08
2023-05-16T17:32:34.113Z,3.72
2023-05-16T17:37:36.960Z,3.72
2023-05-16T17:42:40.489Z,4.72
2023-05-16T17:47:43.189Z,4.55
2023-05-16T17:52:46.328Z,3.63
2023-05-16T17:57:49.094Z,2.97
2023-05-16T18:02:56.748Z,3.10
2023-05-16T18:07:59.318Z,3.22
2023-05-16T18:13:02.465Z,3.13
2023-05-16T18:18:05.570Z,4.55
2023-05-16T18:23:08.911Z,3.58
2023-05-16T18:28:11.627Z,3.70
2023-05-16T18:33:14.686Z,2.58
2023-05-16T18:38:31.378Z,2.70
2023-05-16T18:43:36.879Z,3.05
2023-05-16T18:48:39.792Z,3.88
2023-05-16T18:53:42.426Z,2.67
2023-05-16T18:58:44.854Z,2.55
2023-05-16T19:03:47.365Z,4.32
2023-05-16T19:08:50.067Z,4.57
2023-05-16T19:13:52.557Z,4.97
2023-05-16T19:18:55.298Z,3.42
2023-05-16T19:23:58.183Z,5.07
2023-05-16T19:29:00.718Z,5.07
2023-05-16T19:34:03.361Z,3.63
2023-05-16T19:39:06.130Z,3.70
2023-05-16T19:44:08.679Z,3.13
2023-05-16T19:49:11.227Z,4.45
2023-05-16T19:54:13.863Z,3.85
2023-05-16T19:59:16.514Z,4.30
2023-05-16T20:04:19.119Z,3.45
2023-05-16T20:09:21.684Z,3.38
2023-05-16T20:14:24.456Z,3.53
2023-05-16T20:19:27.172Z,4.22
2023-05-16T20:24:29.745Z,4.68
2023-05-16T20:29:34.102Z,3.47
2023-05-16T20:34:36.723Z,3.92
2023-05-16T20:39:39.505Z,3.65
2023-05-16T20:44:42.298Z,3.50
2023-05-16T20:49:44.890Z,4.32
2023-05-16T20:54:47.485Z,4.55
2023-05-16T20:59:49.968Z,4.15
2023-05-16T21:04:52.466Z,3.67
2023-05-16T21:09:54.974Z,4.22
2023-05-16T21:14:57.340Z,4.10
2023-05-16T21:19:59.952Z,4.90
2023-05-16T21:25:02.482Z,4.78
2023-05-16T21:30:06.328Z,4.30
2023-05-16T21:35:09.287Z,4.65
2023-05-16T21:40:15.065Z,4.05
2023-05-16T21:45:17.846Z,4.38
2023-05-16T21:50:20.518Z,4.45
2023-05-16T21:55:26.077Z,4.22
2023-05-16T22:00:28.646Z,4.75
2023-05-16T22:05:31.087Z,4.50
2023-05-16T22:10:33.482Z,3.63
2023-05-16T22:15:35.902Z,4.22
2023-05-16T22:20:38.460Z,4.47
2023-05-16T22:25:40.894Z,3.45
2023-05-16T22:30:43.352Z,3.33
2023-05-16T22:35:46.067Z,4.30
2023-05-16T22:40:48.541Z,3.58
2023-05-16T22:45:51.816Z,5.75
2023-05-16T22:50:54.272Z,4.35
2023-05-16T22:55:56.828Z,6.85
2023-05-16T23:00:59.482Z,4.15
2023-05-16T23:06:02.056Z,3.72
2023-05-16T23:11:04.548Z,5.03
2023-05-16T23:16:07.301Z,6.15
2023-05-16T23:21:09.929Z,4.95
2023-05-16T23:26:12.385Z,6.22
2023-05-16T23:31:14.829Z,5.32
2023-05-16T23:36:17.340Z,6.68
2023-05-16T23:41:19.876Z,6.10
2023-05-16T23:46:22.386Z,7.10
2023-05-16T23:51:24.968Z,6.30
2023-05-16T23:56:27.421Z,6.05
